Terminal Aerodrome Forecast
Issued by NWS Twin Cities, MN

Home | Current Version | Previous Version | Graphics & Text | Print | Product List | Glossary On
Versions: 1 2 3 4 5 6 7 8 9 10 11 12 13 14 15 16 17 18 19 20
915
FTUS43 KMPX 171739
TAFSTC
TAF
KSTC 171739Z 1718/1818 VRB05KT P6SM BKN120
     FM172000 VRB03KT P6SM BKN120
     FM172200 01004KT P6SM OVC100
     FM180100 35006KT P6SM SCT015 BKN100
      TEMPO 1801/1805 BKN015
     FM180500 34007KT P6SM BKN100
     FM181600 32013KT P6SM FEW200=

USA.gov is the U.S. government's official web portal to all federal, state and local government web resources and services.